sensor_id;sensor_type;location;lat;lon;timestamp;temperature;humidity
6758;DHT22;3416;53.074;8.822;2023-09-30T00:01:22;13.40;99.90
6758;DHT22;3416;53.074;8.822;2023-09-30T00:03:50;13.40;99.90
6758;DHT22;3416;53.074;8.822;2023-09-30T00:06:17;13.30;99.90
6758;DHT22;3416;53.074;8.822;2023-09-30T00:08:44;13.30;99.90
6758;DHT22;3416;53.074;8.822;2023-09-30T00:11:11;13.30;99.90
6758;DHT22;3416;53.074;8.822;2023-09-30T00:13:39;13.30;99.90
6758;DHT22;3416;53.074;8.822;2023-09-30T00:16:06;13.30;99.90
6758;DHT22;3416;53.074;8.822;2023-09-30T00:18:33;13.30;99.90
6758;DHT22;3416;53.074;8.822;2023-09-30T00:21:01;13.30;99.90
6758;DHT22;3416;53.074;8.822;2023-09-30T00:23:28;13.30;99.90
6758;DHT22;3416;53.074;8.822;2023-09-30T00:25:55;13.30;99.90
6758;DHT22;3416;53.074;8.822;2023-09-30T00:28:22;13.20;99.90
6758;DHT22;3416;53.074;8.822;2023-09-30T00:30:50;13.20;99.90
6758;DHT22;3416;53.074;8.822;2023-09-30T00:33:17;13.20;99.90
6758;DHT22;3416;53.074;8.822;2023-09-30T00:35:44;13.20;99.90
6758;DHT22;3416;53.074;8.822;2023-09-30T00:38:13;13.10;99.90
6758;DHT22;3416;53.074;8.822;2023-09-30T00:40:47;13.10;99.90
6758;DHT22;3416;53.074;8.822;2023-09-30T00:43:18;13.10;99.90
6758;DHT22;3416;53.074;8.822;2023-09-30T00:45:45;13.20;99.90
6758;DHT22;3416;53.074;8.822;2023-09-30T00:48:12;13.20;99.90
6758;DHT22;3416;53.074;8.822;2023-09-30T00:50:41;13.20;99.90
6758;DHT22;3416;53.074;8.822;2023-09-30T00:53:08;13.20;99.90
6758;DHT22;3416;53.074;8.822;2023-09-30T00:55:37;13.20;99.90
6758;DHT22;3416;53.074;8.822;2023-09-30T00:58:04;13.10;99.90
6758;DHT22;3416;53.074;8.822;2023-09-30T01:00:31;13.10;99.90
6758;DHT22;3416;53.074;8.822;2023-09-30T01:02:59;13.10;99.90
6758;DHT22;3416;53.074;8.822;2023-09-30T01:05:30;13.10;99.90
6758;DHT22;3416;53.074;8.822;2023-09-30T01:07:58;13.10;99.90
6758;DHT22;3416;53.074;8.822;2023-09-30T01:10:25;13.10;99.90
6758;DHT22;3416;53.074;8.822;2023-09-30T01:12:54;13.10;99.90
6758;DHT22;3416;53.074;8.822;2023-09-30T01:15:22;13.10;99.90
6758;DHT22;3416;53.074;8.822;2023-09-30T01:17:49;13.00;99.90
6758;DHT22;3416;53.074;8.822;2023-09-30T01:20:16;13.00;99.90
6758;DHT22;3416;53.074;8.822;2023-09-30T01:22:49;13.00;99.90
6758;DHT22;3416;53.074;8.822;2023-09-30T01:25:16;13.00;99.90
6758;DHT22;3416;53.074;8.822;2023-09-30T01:27:43;13.00;99.90
6758;DHT22;3416;53.074;8.822;2023-09-30T01:30:11;13.00;99.90
6758;DHT22;3416;53.074;8.822;2023-09-30T01:32:39;13.10;99.90
6758;DHT22;3416;53.074;8.822;2023-09-30T01:35:07;13.10;99.90
6758;DHT22;3416;53.074;8.822;2023-09-30T01:37:34;13.10;99.90
6758;DHT22;3416;53.074;8.822;2023-09-30T01:40:02;13.10;99.90
6758;DHT22;3416;53.074;8.822;2023-09-30T01:42:33;13.10;99.90
6758;DHT22;3416;53.074;8.822;2023-09-30T01:45:00;13.10;99.90
6758;DHT22;3416;53.074;8.822;2023-09-30T01:47:27;13.00;99.90
6758;DHT22;3416;53.074;8.822;2023-09-30T01:49:56;13.00;99.90
6758;DHT22;3416;53.074;8.822;2023-09-30T01:52:23;13.00;99.90
6758;DHT22;3416;53.074;8.822;2023-09-30T01:54:49;13.00;99.90
6758;DHT22;3416;53.074;8.822;2023-09-30T01:57:20;13.00;99.90
6758;DHT22;3416;53.074;8.822;2023-09-30T01:59:47;13.00;99.90
6758;DHT22;3416;53.074;8.822;2023-09-30T02:02:15;12.90;99.90
6758;DHT22;3416;53.074;8.822;2023-09-30T02:04:44;12.80;99.90
6758;DHT22;3416;53.074;8.822;2023-09-30T02:07:10;12.90;99.90
6758;DHT22;3416;53.074;8.822;2023-09-30T02:09:38;12.80;99.90
6758;DHT22;3416;53.074;8.822;2023-09-30T02:12:06;12.70;99.90
6758;DHT22;3416;53.074;8.822;2023-09-30T02:14:35;12.80;99.90
6758;DHT22;3416;53.074;8.822;2023-09-30T02:17:03;12.70;99.90
6758;DHT22;3416;53.074;8.822;2023-09-30T02:19:31;12.70;99.90
6758;DHT22;3416;53.074;8.822;2023-09-30T02:21:59;12.70;99.90
6758;DHT22;3416;53.074;8.822;2023-09-30T02:24:32;12.60;99.90
6758;DHT22;3416;53.074;8.822;2023-09-30T02:26:59;12.60;99.90
6758;DHT22;3416;53.074;8.822;2023-09-30T02:29:26;12.60;99.90
6758;DHT22;3416;53.074;8.822;2023-09-30T02:31:54;12.60;99.90
6758;DHT22;3416;53.074;8.822;2023-09-30T02:34:21;12.60;99.90
6758;DHT22;3416;53.074;8.822;2023-09-30T02:36:49;12.60;99.90
6758;DHT22;3416;53.074;8.822;2023-09-30T02:39:17;12.70;99.90
6758;DHT22;3416;53.074;8.822;2023-09-30T02:41:45;12.70;99.90
6758;DHT22;3416;53.074;8.822;2023-09-30T02:44:13;12.70;99.90
6758;DHT22;3416;53.074;8.822;2023-09-30T02:46:40;12.70;99.90
6758;DHT22;3416;53.074;8.822;2023-09-30T02:49:08;12.70;99.90
6758;DHT22;3416;53.074;8.822;2023-09-30T02:51:35;12.70;99.90
6758;DHT22;3416;53.074;8.822;2023-09-30T02:54:03;12.80;99.90
6758;DHT22;3416;53.074;8.822;2023-09-30T02:56:30;12.80;99.90
6758;DHT22;3416;53.074;8.822;2023-09-30T02:58:57;12.80;99.90
6758;DHT22;3416;53.074;8.822;2023-09-30T03:01:25;12.80;99.90
6758;DHT22;3416;53.074;8.822;2023-09-30T03:03:52;12.80;99.90
6758;DHT22;3416;53.074;8.822;2023-09-30T03:06:20;12.80;99.90
6758;DHT22;3416;53.074;8.822;2023-09-30T03:08:47;12.80;99.90
6758;DHT22;3416;53.074;8.822;2023-09-30T03:11:14;12.90;99.90
6758;DHT22;3416;53.074;8.822;2023-09-30T03:13:41;12.90;99.90
6758;DHT22;3416;53.074;8.822;2023-09-30T03:16:10;12.90;99.90
6758;DHT22;3416;53.074;8.822;2023-09-30T03:18:36;12.80;99.90
6758;DHT22;3416;53.074;8.822;2023-09-30T03:21:13;12.90;99.90
6758;DHT22;3416;53.074;8.822;2023-09-30T03:23:42;12.90;99.90
6758;DHT22;3416;53.074;8.822;2023-09-30T03:26:10;12.80;99.90
6758;DHT22;3416;53.074;8.822;2023-09-30T03:28:36;12.80;99.90
6758;DHT22;3416;53.074;8.822;2023-09-30T03:31:04;12.80;99.90
6758;DHT22;3416;53.074;8.822;2023-09-30T03:33:31;12.80;99.90
6758;DHT22;3416;53.074;8.822;2023-09-30T03:35:59;12.80;99.90
6758;DHT22;3416;53.074;8.822;2023-09-30T03:38:26;12.80;99.90
6758;DHT22;3416;53.074;8.822;2023-09-30T03:40:54;12.90;99.90
6758;DHT22;3416;53.074;8.822;2023-09-30T03:43:23;12.80;99.90
6758;DHT22;3416;53.074;8.822;2023-09-30T03:45:50;12.90;99.90
6758;DHT22;3416;53.074;8.822;2023-09-30T03:48:19;12.90;99.90
6758;DHT22;3416;53.074;8.822;2023-09-30T03:50:46;12.90;99.90
6758;DHT22;3416;53.074;8.822;2023-09-30T03:53:14;12.90;99.90
6758;DHT22;3416;53.074;8.822;2023-09-30T03:55:41;12.90;99.90
6758;DHT22;3416;53.074;8.822;2023-09-30T03:58:09;12.80;99.90
6758;DHT22;3416;53.074;8.822;2023-09-30T04:00:36;12.90;99.90
6758;DHT22;3416;53.074;8.822;2023-09-30T04:03:03;12.80;99.90
6758;DHT22;3416;53.074;8.822;2023-09-30T04:05:32;12.80;99.90
6758;DHT22;3416;53.074;8.822;2023-09-30T04:08:02;12.90;99.90
6758;DHT22;3416;53.074;8.822;2023-09-30T04:10:30;12.80;99.90
6758;DHT22;3416;53.074;8.822;2023-09-30T04:12:57;12.80;99.90
6758;DHT22;3416;53.074;8.822;2023-09-30T04:15:35;12.80;99.90
6758;DHT22;3416;53.074;8.822;2023-09-30T04:18:03;12.80;99.90
6758;DHT22;3416;53.074;8.822;2023-09-30T04:20:32;12.80;99.90
6758;DHT22;3416;53.074;8.822;2023-09-30T04:22:58;12.80;99.90
6758;DHT22;3416;53.074;8.822;2023-09-30T04:25:28;12.90;99.90
6758;DHT22;3416;53.074;8.822;2023-09-30T04:27:55;12.80;99.90
6758;DHT22;3416;53.074;8.822;2023-09-30T04:30:26;12.90;99.90
6758;DHT22;3416;53.074;8.822;2023-09-30T04:32:55;12.90;99.90
6758;DHT22;3416;53.074;8.822;2023-09-30T04:35:24;12.90;99.90
6758;DHT22;3416;53.074;8.822;2023-09-30T04:37:52;12.90;99.90
6758;DHT22;3416;53.074;8.822;2023-09-30T04:40:19;12.90;99.90
6758;DHT22;3416;53.074;8.822;2023-09-30T04:42:47;12.90;99.90
6758;DHT22;3416;53.074;8.822;2023-09-30T04:45:15;12.90;99.90
6758;DHT22;3416;53.074;8.822;2023-09-30T04:47:45;12.90;99.90
6758;DHT22;3416;53.074;8.822;2023-09-30T04:50:16;12.90;99.90
6758;DHT22;3416;53.074;8.822;2023-09-30T04:52:43;12.90;99.90
6758;DHT22;3416;53.074;8.822;2023-09-30T04:55:11;12.90;99.90
6758;DHT22;3416;53.074;8.822;2023-09-30T04:57:41;12.90;99.90
6758;DHT22;3416;53.074;8.822;2023-09-30T05:00:11;13.00;99.90
6758;DHT22;3416;53.074;8.822;2023-09-30T05:02:39;13.00;99.90
6758;DHT22;3416;53.074;8.822;2023-09-30T05:05:07;13.00;99.90
6758;DHT22;3416;53.074;8.822;2023-09-30T05:07:35;13.00;99.90
6758;DHT22;3416;53.074;8.822;2023-09-30T05:10:02;13.00;99.90
6758;DHT22;3416;53.074;8.822;2023-09-30T05:12:31;13.00;99.90
6758;DHT22;3416;53.074;8.822;2023-09-30T05:14:58;13.00;99.90
6758;DHT22;3416;53.074;8.822;2023-09-30T05:17:25;13.00;99.90
6758;DHT22;3416;53.074;8.822;2023-09-30T05:19:54;13.10;99.90
6758;DHT22;3416;53.074;8.822;2023-09-30T05:22:21;13.10;99.90
6758;DHT22;3416;53.074;8.822;2023-09-30T05:24:51;13.10;99.90
6758;DHT22;3416;53.074;8.822;2023-09-30T05:27:19;13.00;99.90
6758;DHT22;3416;53.074;8.822;2023-09-30T05:29:56;13.00;99.90
6758;DHT22;3416;53.074;8.822;2023-09-30T05:32:24;13.00;99.90
6758;DHT22;3416;53.074;8.822;2023-09-30T05:34:52;13.00;99.90
6758;DHT22;3416;53.074;8.822;2023-09-30T05:37:20;13.10;99.90
6758;DHT22;3416;53.074;8.822;2023-09-30T05:39:48;13.00;99.90
6758;DHT22;3416;53.074;8.822;2023-09-30T05:42:16;13.00;99.90
6758;DHT22;3416;53.074;8.822;2023-09-30T05:44:44;13.00;99.90
6758;DHT22;3416;53.074;8.822;2023-09-30T05:47:11;13.00;99.90
6758;DHT22;3416;53.074;8.822;2023-09-30T05:49:39;13.00;99.90
